Time;durP1;ratioP1;P1;durP2;ratioP2;P2;SDS_P1;SDS_P2;PMS_P1;PMS_P2;Temp;Humidity;BMP_temperature;BMP_pressure;BME280_temperature;BME280_humidity;BME280_pressure;Samples;Min_cycle;Max_cycle;Signal;HPM_P1;HPM_P2
2022/07/19 00:05:51;;;;;;;2.50;1.10;;;;;;;18.53;48.57;101111.28;18354010;32;20101;-55
2022/07/19 00:15:55;;;;;;;3.65;1.42;;;;;;;18.60;48.98;101102.28;18353877;32;20104;-56
2022/07/19 00:26:02;;;;;;;5.70;1.45;;;;;;;18.61;49.38;101119.88;18352943;31;20093;-55
2022/07/19 00:36:05;;;;;;;3.12;1.30;;;;;;;18.37;49.66;101116.91;18352931;32;20432;-56
2022/07/19 00:46:14;;;;;;;1.52;1.33;;;;;;;18.15;50.52;101106.84;18406198;31;20479;-56
2022/07/19 00:56:18;;;;;;;3.58;1.58;;;;;;;18.22;50.78;101107.56;18353095;32;20101;-56
2022/07/19 01:06:23;;;;;;;2.70;1.33;;;;;;;17.86;52.10;101124.16;18351518;32;20187;-55
2022/07/19 01:16:27;;;;;;;3.42;1.65;;;;;;;17.55;52.98;101124.81;18350975;32;20089;-55
2022/07/19 01:26:31;;;;;;;3.10;1.30;;;;;;;17.57;52.92;101115.06;18350655;31;20141;-55
2022/07/19 01:36:35;;;;;;;2.87;1.48;;;;;;;17.64;53.29;101104.37;18352343;32;20089;-56
2022/07/19 01:46:40;;;;;;;3.90;1.55;;;;;;;17.60;53.70;101093.03;18413344;31;20357;-55
2022/07/19 01:56:43;;;;;;;3.90;1.67;;;;;;;17.14;54.39;101098.31;18359242;32;20093;-56
2022/07/19 02:06:48;;;;;;;2.85;1.27;;;;;;;17.38;54.24;101105.78;18359202;32;20119;-55
2022/07/19 02:16:51;;;;;;;4.90;1.83;;;;;;;17.33;54.19;101112.00;18358708;32;20093;-55
2022/07/19 02:26:56;;;;;;;1.80;1.40;;;;;;;16.68;56.18;101113.09;18358270;31;20174;-55
2022/07/19 02:36:59;;;;;;;3.25;1.75;;;;;;;17.00;55.28;101118.75;18357762;32;20518;-55
2022/07/19 02:47:04;;;;;;;2.97;1.50;;;;;;;17.02;55.25;101112.56;18356878;32;20527;-55
2022/07/19 02:57:07;;;;;;;3.72;1.52;;;;;;;17.06;55.56;101124.78;18356699;32;20112;-55
2022/07/19 03:07:12;;;;;;;6.55;1.73;;;;;;;17.18;55.78;101128.13;18356334;32;20137;-56
2022/07/19 03:17:15;;;;;;;2.25;1.30;;;;;;;16.85;56.58;101133.06;18355797;32;20121;-56
2022/07/19 03:27:20;;;;;;;3.17;1.37;;;;;;;16.63;57.43;101136.91;18355659;31;20140;-56
2022/07/19 03:37:23;;;;;;;3.28;1.45;;;;;;;16.47;57.37;101138.91;18355357;32;20101;-56
2022/07/19 03:47:28;;;;;;;1.85;1.30;;;;;;;16.82;57.11;101138.37;18356061;32;20105;-56
2022/07/19 03:57:31;;;;;;;1.65;1.35;;;;;;;16.91;56.42;101154.06;18378146;31;73915;-56
2022/07/19 04:07:36;;;;;;;3.15;1.50;;;;;;;16.83;57.39;101158.59;18407087;31;20369;-56
2022/07/19 04:17:39;;;;;;;1.90;1.30;;;;;;;17.84;55.32;101176.16;18354716;32;20089;-56
2022/07/19 04:27:44;;;;;;;2.47;1.20;;;;;;;18.98;51.98;101168.34;18353242;32;20089;-56
2022/07/19 04:37:47;;;;;;;4.30;1.48;;;;;;;19.18;52.15;101173.16;18352973;32;20101;-55
2022/07/19 04:47:51;;;;;;;2.70;1.37;;;;;;;19.60;51.65;101173.81;18352688;32;20761;-56
2022/07/19 04:57:55;;;;;;;3.72;1.30;;;;;;;20.67;47.80;101162.72;18351735;32;20105;-56
2022/07/19 05:07:59;;;;;;;2.50;1.00;;;;;;;21.54;44.11;101169.56;18351438;32;20102;-56
2022/07/19 05:18:02;;;;;;;4.22;1.30;;;;;;;21.82;44.42;101173.91;18360531;32;20437;-56
2022/07/19 05:28:08;;;;;;;2.60;1.00;;;;;;;22.29;44.19;101168.56;18359984;32;20376;-56
2022/07/19 05:38:11;;;;;;;2.40;1.08;;;;;;;22.85;43.34;101168.16;18355973;32;20447;-56
2022/07/19 05:48:16;;;;;;;2.67;0.90;;;;;;;23.41;41.58;101164.00;18358360;32;20112;-56
2022/07/19 05:58:19;;;;;;;3.80;0.95;;;;;;;24.01;38.43;101151.53;18359572;32;20385;-56
2022/07/19 06:08:24;;;;;;;2.67;1.02;;;;;;;24.21;36.24;101155.97;18360425;32;20093;-56
2022/07/19 06:18:30;;;;;;;1.80;0.85;;;;;;;25.44;32.65;101154.38;18411846;31;20451;-56
2022/07/19 06:28:35;;;;;;;2.50;0.98;;;;;;;25.73;31.78;101154.66;18357180;32;20082;-56
2022/07/19 06:38:43;;;;;;;4.17;1.00;;;;;;;25.97;31.27;101143.53;18357989;31;20177;-56
2022/07/19 06:48:47;;;;;;;3.72;1.00;;;;;;;26.65;30.95;101146.88;18357325;32;20739;-56
2022/07/19 06:58:51;;;;;;;3.87;1.10;;;;;;;27.03;29.26;101142.91;18356354;32;20089;-57
2022/07/19 07:08:55;;;;;;;2.58;0.80;;;;;;;27.70;28.20;101129.88;18379389;31;20433;-56
2022/07/19 07:18:59;;;;;;;0.90;0.75;;;;;;;27.58;26.54;101136.00;18353574;32;20124;-57
2022/07/19 07:29:04;;;;;;;1.12;0.75;;;;;;;28.69;26.40;101131.63;18357389;32;20120;-57
2022/07/19 07:39:07;;;;;;;3.53;0.95;;;;;;;29.00;24.84;101121.50;18354372;32;20373;-57
2022/07/19 07:49:12;;;;;;;1.33;0.80;;;;;;;30.20;23.52;101113.06;18407760;31;20111;-57
2022/07/19 07:59:15;;;;;;;2.92;0.90;;;;;;;29.74;23.87;101115.47;18354571;32;20108;-57
2022/07/19 08:09:19;;;;;;;2.08;1.00;;;;;;;30.35;23.55;101105.66;18355503;32;20097;-56
2022/07/19 08:19:23;;;;;;;2.22;0.80;;;;;;;31.20;22.31;101107.28;18356334;32;20116;-57
2022/07/19 08:29:27;;;;;;;1.02;0.80;;;;;;;31.60;20.93;101097.00;18409408;31;20092;-57
2022/07/19 08:39:30;;;;;;;4.22;0.80;;;;;;;31.92;22.04;101099.78;18355743;32;20104;-57
2022/07/19 08:49:35;;;;;;;1.48;0.70;;;;;;;31.88;21.24;101090.25;18407698;31;20115;-57
2022/07/19 08:59:38;;;;;;;1.87;0.70;;;;;;;32.44;21.05;101090.19;18407636;31;20116;-57
2022/07/19 09:09:43;;;;;;;2.40;0.82;;;;;;;31.75;20.95;101081.41;18355399;32;20093;-57
2022/07/19 09:19:49;;;;;;;1.37;0.57;;;;;;;32.93;19.15;101069.78;18353202;32;20116;-57
2022/07/19 09:29:56;;;;;;;1.77;0.80;;;;;;;32.47;19.59;101066.47;18405453;31;20116;-57
2022/07/19 09:40:01;;;;;;;1.40;0.60;;;;;;;32.89;18.33;101046.69;18353107;32;20115;-57
2022/07/19 09:50:10;;;;;;;1.27;0.75;;;;;;;32.76;18.99;101049.59;18404633;31;20111;-57
2022/07/19 10:00:15;;;;;;;1.70;0.75;;;;;;;34.07;18.20;101035.41;18355953;32;20119;-57
2022/07/19 10:10:22;;;;;;;1.42;0.77;;;;;;;32.99;18.64;101035.09;18415031;31;20101;-57
2022/07/19 10:20:26;;;;;;;2.05;0.68;;;;;;;33.99;19.20;101029.81;18361426;32;20089;-56
2022/07/19 10:30:40;;;;;;;2.37;0.85;;;;;;;34.51;18.31;101020.50;18361226;32;20183;-56
2022/07/19 10:40:44;;;;;;;1.33;0.60;;;;;;;35.49;16.42;100998.47;18360872;31;20103;-57
2022/07/19 10:50:52;;;;;;;1.75;0.93;;;;;;;35.17;16.72;101016.06;18413253;31;20101;-56
2022/07/19 11:01:01;;;;;;;1.42;0.60;;;;;;;35.99;15.63;100996.25;18358488;32;20101;-57
2022/07/19 11:11:07;;;;;;;2.30;0.75;;;;;;;34.44;17.68;100988.59;18410571;31;20137;-57
2022/07/19 11:21:12;;;;;;;1.83;0.62;;;;;;;35.08;17.00;100978.97;18351280;32;20111;-57
2022/07/19 11:31:18;;;;;;;2.55;0.70;;;;;;;35.79;16.64;100966.53;18374192;31;20094;-57
2022/07/19 11:41:24;;;;;;;2.25;0.70;;;;;;;34.90;16.98;100957.22;18352628;32;20424;-56
2022/07/19 11:51:29;;;;;;;2.37;0.90;;;;;;;36.18;15.31;100942.75;18352109;32;20162;-57
2022/07/19 12:01:35;;;;;;;6.45;1.10;;;;;;;37.35;15.17;100928.69;18352700;31;20196;-57
2022/07/19 12:11:41;;;;;;;1.20;0.70;;;;;;;35.06;17.45;100926.75;18350833;32;20107;-57
2022/07/19 12:21:45;;;;;;;1.30;0.60;;;;;;;35.98;16.11;100915.78;18351024;32;20101;-56
2022/07/19 12:31:51;;;;;;;1.50;0.90;;;;;;;36.48;15.52;100905.22;18407141;31;20120;-56
2022/07/19 12:42:16;;;;;;;1.95;0.60;;;;;;;36.28;16.29;100904.59;18352477;32;20129;-56
2022/07/19 12:52:20;;;;;;;0.68;0.57;;;;;;;36.04;16.08;100903.41;18401717;31;20121;-57
2022/07/19 13:02:24;;;;;;;2.35;0.73;;;;;;;36.84;15.01;100896.91;18403537;31;20128;-57
2022/07/19 13:12:28;;;;;;;1.73;0.77;;;;;;;38.30;13.88;100886.47;18351032;32;20104;-57
2022/07/19 13:22:32;;;;;;;0.65;0.55;;;;;;;36.12;15.39;100873.63;18402763;31;20115;-57
2022/07/19 13:32:36;;;;;;;1.87;0.60;;;;;;;34.85;16.68;100868.19;18353952;32;20112;-57
2022/07/19 13:42:40;;;;;;;1.62;0.90;;;;;;;35.36;15.77;100854.13;18359758;31;20457;-57
2022/07/19 13:52:45;;;;;;;1.23;0.70;;;;;;;36.52;15.39;100844.09;18586314;31;20093;-57
2022/07/19 14:02:48;;;;;;;1.75;0.70;;;;;;;35.60;16.11;100828.25;18437654;31;20089;-57
2022/07/19 14:12:54;;;;;;;1.50;1.00;;;;;;;35.23;15.84;100817.41;18356456;31;20093;-57
2022/07/19 14:23:17;;;;;;;1.17;0.80;;;;;;;35.31;16.09;100810.34;18411678;31;20125;-57
2022/07/19 14:33:22;;;;;;;3.15;0.90;;;;;;;35.32;16.54;100795.78;18410328;31;20369;-57
2022/07/19 14:43:25;;;;;;;1.05;0.60;;;;;;;35.39;16.21;100794.16;18352825;32;20193;-57
2022/07/19 14:53:32;;;;;;;1.52;0.80;;;;;;;34.53;16.56;100790.91;18353559;31;20145;-56
2022/07/19 15:03:35;;;;;;;0.95;0.60;;;;;;;34.89;16.30;100784.69;18350353;32;20089;-59
2022/07/19 15:13:40;;;;;;;1.58;0.68;;;;;;;35.46;16.28;100773.47;18415904;31;20097;-57
2022/07/19 15:23:43;;;;;;;3.65;0.93;;;;;;;35.40;16.27;100772.25;18357349;32;20084;-57
2022/07/19 15:33:48;;;;;;;1.45;0.70;;;;;;;35.00;17.01;100760.91;18353806;32;20104;-57
2022/07/19 15:43:51;;;;;;;1.52;0.90;;;;;;;35.96;16.13;100760.25;18355655;32;20130;-57
2022/07/19 15:53:56;;;;;;;2.95;0.75;;;;;;;35.36;16.76;100749.19;18427045;31;20123;-57
2022/07/19 16:03:59;;;;;;;2.50;0.80;;;;;;;34.67;16.54;100741.59;18626067;31;20095;-57
2022/07/19 16:14:04;;;;;;;1.55;0.62;;;;;;;35.31;17.35;100737.09;18623614;31;20096;-57
2022/07/19 16:24:08;;;;;;;2.95;0.80;;;;;;;34.41;16.97;100739.56;18625249;31;20088;-57
2022/07/19 16:34:13;;;;;;;1.65;0.75;;;;;;;34.22;17.88;100739.69;18625157;31;20114;-57
2022/07/19 16:44:16;;;;;;;1.48;0.70;;;;;;;34.62;17.15;100732.22;18625784;31;20096;-57
2022/07/19 16:54:20;;;;;;;1.17;0.60;;;;;;;34.90;17.25;100719.44;18622266;31;20118;-57
2022/07/19 17:04:24;;;;;;;1.58;0.73;;;;;;;34.64;17.29;100732.91;18622621;31;20107;-57
2022/07/19 17:14:28;;;;;;;2.72;0.80;;;;;;;34.64;18.84;100731.06;18624304;31;20100;-57
2022/07/19 17:24:32;;;;;;;2.17;0.88;;;;;;;34.43;19.79;100732.19;18621915;31;20128;-57
2022/07/19 17:34:36;;;;;;;3.67;1.17;;;;;;;34.13;21.73;100728.75;18622262;31;20110;-58
2022/07/19 17:44:40;;;;;;;1.85;0.90;;;;;;;33.66;23.25;100731.47;18371699;31;20115;-57
2022/07/19 17:54:44;;;;;;;1.33;0.85;;;;;;;33.18;22.81;100742.22;18347191;31;20122;-57
2022/07/19 18:04:50;;;;;;;7.45;1.10;;;;;;;32.74;24.87;100756.13;18348814;31;20101;-57
2022/07/19 18:14:55;;;;;;;4.90;1.10;;;;;;;32.16;26.61;100763.06;18346072;32;20113;-57
2022/07/19 18:24:58;;;;;;;1.80;1.00;;;;;;;31.51;27.52;100756.03;18355904;32;20165;-57
2022/07/19 18:35:03;;;;;;;7.43;1.25;;;;;;;30.85;28.85;100757.84;18409329;31;20106;-56
2022/07/19 18:45:07;;;;;;;7.50;1.30;;;;;;;30.22;31.31;100770.06;18410625;31;20139;-57
2022/07/19 18:55:18;;;;;;;;;;;;;;;29.61;33.21;100769.34;18405009;31;20110;-57
2022/07/19 19:05:21;;;;;;;1.83;1.00;;;;;;;29.13;32.52;100782.84;18408928;31;19998;-57
2022/07/19 19:15:26;;;;;;;3.33;1.60;;;;;;;28.34;32.95;100803.69;18357271;32;20110;-57
2022/07/19 19:25:30;;;;;;;3.75;1.20;;;;;;;27.73;33.92;100801.62;18412187;31;20485;-57
2022/07/19 19:35:35;;;;;;;6.87;1.60;;;;;;;27.04;35.76;100813.31;18408875;31;20093;-58
2022/07/19 19:45:39;;;;;;;6.25;1.50;;;;;;;26.73;36.38;100824.13;18410367;31;20105;-57
2022/07/19 19:55:46;;;;;;;7.55;1.65;;;;;;;26.33;37.51;100829.34;18408975;31;20121;-57
2022/07/19 20:05:49;;;;;;;8.07;1.77;;;;;;;25.94;39.27;100841.50;18403529;31;20093;-57
2022/07/19 20:15:54;;;;;;;5.47;1.77;;;;;;;25.66;40.29;100851.16;18355978;32;20394;-57
2022/07/19 20:26:11;;;;;;;5.80;1.48;;;;;;;25.56;41.54;100848.16;18355700;31;20171;-57
2022/07/19 20:36:16;;;;;;;4.50;1.40;;;;;;;25.48;40.95;100862.81;18354434;32;20093;-56
2022/07/19 20:46:19;;;;;;;3.33;1.30;;;;;;;25.14;41.25;100869.22;18350093;32;20136;-57
2022/07/19 20:56:24;;;;;;;2.65;1.35;;;;;;;24.81;41.08;100871.03;18351523;32;20377;-57
2022/07/19 21:06:28;;;;;;;3.45;1.60;;;;;;;24.64;41.34;100877.22;18350975;32;20105;-57
2022/07/19 21:16:32;;;;;;;3.62;1.40;;;;;;;24.30;42.59;100879.88;18350122;32;20101;-56
2022/07/19 21:26:36;;;;;;;1.77;1.12;;;;;;;23.98;43.05;100869.91;18354013;32;20116;-56
2022/07/19 21:36:44;;;;;;;4.72;1.50;;;;;;;23.76;42.55;100874.63;18353386;32;20108;-56
2022/07/19 21:46:48;;;;;;;3.75;1.45;;;;;;;23.57;43.30;100880.87;18352833;32;20150;-56
2022/07/19 21:56:56;;;;;;;4.68;1.52;;;;;;;23.27;45.11;100892.06;18359189;32;20085;-56
2022/07/19 22:06:59;;;;;;;2.35;1.15;;;;;;;23.17;43.86;100890.78;18414790;31;20093;-57
2022/07/19 22:17:04;;;;;;;4.30;1.20;;;;;;;23.13;44.68;100893.56;18361953;32;20108;-56
2022/07/19 22:27:07;;;;;;;4.47;1.70;;;;;;;22.96;44.63;100899.69;18361500;32;20116;-56
2022/07/19 22:37:12;;;;;;;3.55;1.58;;;;;;;22.84;44.85;100908.25;18361107;32;20476;-56
2022/07/19 22:47:15;;;;;;;4.60;1.45;;;;;;;22.68;45.62;100902.75;18361892;32;20085;-56
2022/07/19 22:57:20;;;;;;;4.90;1.48;;;;;;;22.28;46.03;100906.19;18360444;32;20088;-56
2022/07/19 23:07:26;;;;;;;4.60;1.60;;;;;;;21.88;47.59;100913.22;18359425;32;20373;-56
2022/07/19 23:17:31;;;;;;;2.42;1.20;;;;;;;21.82;46.50;100910.84;18413597;31;20480;-56
2022/07/19 23:27:35;;;;;;;2.55;1.40;;;;;;;21.63;46.40;100920.38;18358972;32;20108;-56
2022/07/19 23:37:39;;;;;;;4.57;1.48;;;;;;;21.53;47.06;100923.47;18358770;32;20120;-56
2022/07/19 23:47:42;;;;;;;3.30;1.40;;;;;;;21.41;47.40;100927.50;18358604;32;20189;-56
2022/07/19 23:57:47;;;;;;;4.45;1.42;;;;;;;21.14;48.68;100917.84;18359132;32;20082;-56
